createdAt,value
2019-03-11T00:00:34.895Z,1.07
2019-03-11T00:05:30.734Z,1.87
2019-03-11T00:10:25.822Z,1.50
2019-03-11T00:15:23.637Z,1.43
2019-03-11T00:20:18.476Z,1.40
2019-03-11T00:25:13.355Z,1.53
2019-03-11T00:30:08.809Z,1.50
2019-03-11T00:35:04.144Z,1.10
2019-03-11T00:39:59.900Z,1.40
2019-03-11T00:44:54.662Z,1.87
2019-03-11T00:49:50.436Z,1.17
2019-03-11T00:54:48.217Z,1.10
2019-03-11T00:59:43.005Z,1.13
2019-03-11T01:04:38.209Z,1.37
2019-03-11T01:09:34.015Z,1.10
2019-03-11T01:14:29.123Z,1.40
2019-03-11T01:19:23.888Z,1.60
2019-03-11T01:24:18.672Z,1.57
2019-03-11T01:29:13.421Z,1.47
2019-03-11T01:34:08.478Z,1.20
2019-03-11T01:39:04.375Z,1.50
2019-03-11T01:43:59.151Z,1.60
2019-03-11T01:48:54.271Z,1.80
2019-03-11T01:53:49.814Z,2.27
2019-03-11T01:58:44.573Z,2.17
2019-03-11T02:03:39.334Z,1.90
2019-03-11T02:08:34.097Z,2.20
2019-03-11T02:13:29.204Z,2.30
2019-03-11T02:18:24.039Z,2.13
2019-03-11T02:23:20.455Z,2.97
2019-03-11T02:28:15.501Z,2.20
2019-03-11T02:33:10.277Z,2.37
2019-03-11T02:38:05.324Z,2.47
2019-03-11T02:43:00.089Z,2.23
2019-03-11T02:47:54.869Z,2.57
2019-03-11T02:52:49.722Z,2.40
2019-03-11T02:57:44.598Z,1.90
2019-03-11T03:03:16.717Z,2.53
2019-03-11T03:08:11.478Z,2.40
2019-03-11T03:13:06.324Z,2.30
2019-03-11T03:18:01.094Z,3.53
2019-03-11T03:22:55.866Z,2.43
2019-03-11T03:27:51.017Z,2.37
2019-03-11T03:32:46.194Z,2.90
2019-03-11T03:37:41.258Z,2.50
2019-03-11T03:42:36.095Z,2.80
2019-03-11T03:47:31.492Z,3.13
2019-03-11T03:52:26.275Z,2.57
2019-03-11T03:57:21.053Z,3.30
2019-03-11T04:02:16.237Z,2.40
2019-03-11T04:07:11.577Z,2.73
2019-03-11T04:12:06.582Z,3.33
2019-03-11T04:17:01.865Z,2.70
2019-03-11T04:21:56.921Z,2.60
2019-03-11T04:26:54.684Z,1.53
2019-03-11T04:31:49.976Z,1.17
2019-03-11T04:36:45.006Z,1.10
2019-03-11T04:41:40.214Z,1.10
2019-03-11T04:46:35.203Z,1.10
2019-03-11T04:51:30.161Z,1.00
2019-03-11T04:56:25.100Z,1.03
2019-03-11T05:01:20.511Z,1.03
2019-03-11T05:06:15.818Z,0.80
2019-03-11T05:11:11.046Z,1.03
2019-03-11T05:16:06.113Z,0.97
2019-03-11T05:21:01.033Z,0.90
2019-03-11T05:25:56.706Z,1.00
2019-03-11T05:30:51.694Z,1.00
2019-03-11T05:35:46.766Z,0.80
2019-03-11T05:40:41.776Z,0.53
2019-03-11T05:45:36.755Z,0.80
2019-03-11T05:50:31.696Z,0.80
2019-03-11T05:55:26.745Z,0.60
2019-03-11T06:00:25.803Z,0.93
2019-03-11T06:05:20.862Z,0.70
2019-03-11T06:10:15.915Z,1.00
2019-03-11T06:15:11.249Z,1.20
2019-03-11T06:20:27.397Z,1.03
2019-03-11T06:25:22.316Z,8.97
2019-03-11T06:30:17.271Z,1.13
2019-03-11T06:35:12.369Z,1.10
2019-03-11T06:40:07.552Z,0.80
2019-03-11T06:45:02.504Z,1.57
2019-03-11T06:49:57.449Z,1.53
2019-03-11T06:54:52.438Z,1.67
2019-03-11T06:59:47.392Z,2.40
2019-03-11T07:04:42.340Z,2.57
2019-03-11T07:09:37.311Z,2.70
2019-03-11T07:14:32.695Z,2.70
2019-03-11T07:19:27.930Z,2.37
2019-03-11T07:24:22.865Z,1.40
2019-03-11T07:29:17.840Z,1.70
2019-03-11T07:34:12.766Z,1.40
2019-03-11T07:39:07.855Z,1.10
2019-03-11T07:44:03.196Z,0.90
2019-03-11T07:48:58.220Z,5.77
2019-03-11T07:53:53.597Z,2.50
2019-03-11T07:58:49.624Z,0.90
2019-03-11T08:03:44.525Z,0.70
2019-03-11T08:08:39.600Z,0.77
2019-03-11T08:13:34.639Z,1.03
2019-03-11T08:18:35.272Z,0.80
2019-03-11T08:23:28.246Z,1.30
2019-03-11T08:28:23.141Z,1.03
2019-03-11T08:33:18.079Z,1.60
2019-03-11T08:38:13.050Z,1.60
2019-03-11T08:43:07.946Z,1.47
2019-03-11T08:48:02.823Z,1.43
2019-03-11T08:53:01.292Z,1.27
2019-03-11T08:57:56.552Z,1.63
2019-03-11T09:02:51.518Z,1.60
2019-03-11T09:07:46.476Z,1.87
2019-03-11T09:12:41.472Z,1.67
2019-03-11T09:17:36.480Z,1.30
2019-03-11T09:22:31.474Z,1.70
2019-03-11T09:27:26.568Z,1.57
2019-03-11T09:32:21.672Z,1.23
2019-03-11T09:37:16.974Z,1.73
2019-03-11T09:42:11.988Z,1.70
2019-03-11T09:47:10.002Z,1.60
2019-03-11T09:52:04.914Z,1.70
2019-03-11T09:56:59.930Z,1.60
2019-03-11T10:01:54.877Z,1.63
2019-03-11T10:06:49.940Z,1.73
2019-03-11T10:11:50.679Z,1.70
2019-03-11T10:16:45.571Z,1.73
2019-03-11T10:21:42.580Z,1.50
2019-03-11T10:26:37.463Z,1.50
2019-03-11T10:31:32.337Z,1.77
2019-03-11T10:36:27.319Z,1.47
2019-03-11T10:41:22.238Z,1.60
2019-03-11T10:46:17.146Z,1.90
2019-03-11T10:51:12.097Z,1.83
2019-03-11T10:56:07.466Z,1.63
2019-03-11T11:01:09.924Z,1.47
2019-03-11T11:06:05.283Z,1.67
2019-03-11T11:11:00.163Z,1.50
2019-03-11T11:15:55.189Z,1.40
2019-03-11T11:20:50.277Z,1.53
2019-03-11T11:25:45.356Z,1.63
2019-03-11T11:31:04.483Z,2.30
2019-03-11T11:35:59.996Z,1.63
2019-03-11T11:40:58.128Z,2.03
2019-03-11T11:45:53.350Z,1.53
2019-03-11T11:50:50.196Z,1.43
2019-03-11T11:55:45.099Z,2.00
2019-03-11T12:00:42.085Z,2.03
2019-03-11T12:05:37.405Z,1.93
2019-03-11T12:10:32.772Z,1.73
2019-03-11T12:15:28.011Z,2.07
2019-03-11T12:20:23.561Z,1.70
2019-03-11T12:25:18.784Z,2.50
2019-03-11T12:30:16.129Z,1.90
2019-03-11T12:35:12.574Z,2.00
2019-03-11T12:40:08.785Z,2.43
2019-03-11T12:45:03.847Z,1.90
2019-03-11T12:50:04.977Z,1.97
2019-03-11T12:55:02.047Z,2.07
2019-03-11T12:59:57.698Z,2.03
2019-03-11T13:04:52.690Z,1.77
2019-03-11T13:09:47.673Z,2.00
2019-03-11T13:14:42.648Z,1.77
2019-03-11T13:19:39.653Z,2.23
2019-03-11T13:24:34.501Z,1.97
2019-03-11T13:29:29.758Z,2.23
2019-03-11T13:34:24.662Z,1.70
2019-03-11T13:39:19.724Z,1.90
2019-03-11T13:44:14.688Z,1.90
2019-03-11T13:49:09.715Z,1.93
2019-03-11T13:54:04.644Z,1.80
2019-03-11T13:58:59.897Z,2.13
2019-03-11T14:03:54.861Z,1.93
2019-03-11T14:08:49.893Z,1.50
2019-03-11T14:13:44.950Z,1.80
2019-03-11T14:18:46.180Z,1.50
2019-03-11T14:23:41.063Z,1.30
2019-03-11T14:28:38.076Z,1.70
2019-03-11T14:33:33.072Z,1.80
2019-03-11T14:38:28.328Z,2.03
2019-03-11T14:43:23.232Z,1.80
2019-03-11T14:48:18.156Z,2.00
2019-03-11T14:53:15.286Z,1.50
2019-03-11T14:58:10.189Z,1.50
2019-03-11T15:03:05.208Z,2.10
2019-03-11T15:08:00.144Z,1.90
2019-03-11T15:12:58.819Z,2.10
2019-03-11T15:17:53.879Z,1.90
2019-03-11T15:23:41.668Z,2.77
2019-03-11T15:28:36.636Z,2.30
2019-03-11T15:33:31.956Z,2.30
2019-03-11T15:38:27.488Z,2.03
2019-03-11T15:43:23.064Z,1.97
2019-03-11T15:48:18.164Z,1.93
2019-03-11T15:53:13.289Z,2.00
2019-03-11T15:58:14.239Z,1.90
2019-03-11T16:03:18.367Z,1.90
2019-03-11T16:08:13.729Z,2.50
2019-03-11T16:13:11.763Z,2.08
2019-03-11T16:18:08.764Z,2.07
2019-03-11T16:23:10.769Z,2.43
2019-03-11T16:28:12.825Z,2.03
2019-03-11T16:33:07.732Z,2.00
2019-03-11T16:38:02.671Z,2.57
2019-03-11T16:42:57.640Z,2.33
2019-03-11T16:48:01.644Z,2.50
2019-03-11T16:53:02.950Z,2.23
2019-03-11T16:58:01.388Z,2.30
2019-03-11T17:02:56.370Z,2.57
2019-03-11T17:07:52.294Z,2.50
2019-03-11T17:12:47.651Z,2.17
2019-03-11T17:17:42.647Z,2.53
2019-03-11T17:22:37.687Z,2.63
2019-03-11T17:27:32.973Z,2.70
2019-03-11T17:32:28.138Z,3.60
2019-03-11T17:37:24.741Z,5.27
2019-03-11T17:42:19.642Z,40.03
2019-03-11T17:47:14.958Z,24.83
2019-03-11T17:52:12.891Z,13.93
2019-03-11T17:57:07.770Z,11.03
2019-03-11T18:02:02.645Z,4.27
2019-03-11T18:06:57.604Z,5.30
2019-03-11T18:11:52.808Z,3.67
2019-03-11T18:16:48.682Z,3.70
2019-03-11T18:21:49.502Z,3.17
2019-03-11T18:26:44.423Z,2.83
2019-03-11T18:31:39.379Z,2.53
2019-03-11T18:36:34.349Z,2.60
2019-03-11T18:41:29.974Z,2.60
2019-03-11T18:46:28.071Z,2.00
2019-03-11T18:51:23.331Z,3.17
2019-03-11T18:56:24.417Z,2.37
2019-03-11T19:01:19.714Z,2.80
2019-03-11T19:06:14.673Z,3.10
2019-03-11T19:11:09.539Z,2.93
2019-03-11T19:16:04.524Z,2.57
2019-03-11T19:21:00.780Z,3.10
2019-03-11T19:25:55.907Z,3.20
2019-03-11T19:30:50.882Z,3.00
2019-03-11T19:35:45.821Z,2.43
2019-03-11T19:40:40.780Z,2.40
2019-03-11T19:45:35.992Z,2.73
2019-03-11T19:50:31.208Z,2.50
2019-03-11T19:55:29.180Z,2.80
2019-03-11T20:00:24.299Z,2.53
2019-03-11T20:05:20.894Z,2.27
2019-03-11T20:10:16.492Z,2.23
2019-03-11T20:15:11.612Z,1.90
2019-03-11T20:20:07.044Z,1.83
2019-03-11T20:25:02.102Z,2.07
2019-03-11T20:29:57.470Z,2.10
2019-03-11T20:34:52.414Z,3.03
2019-03-11T20:39:47.294Z,2.83
2019-03-11T20:44:42.310Z,3.40
2019-03-11T20:49:43.580Z,2.33
2019-03-11T20:54:40.456Z,2.73
2019-03-11T20:59:35.340Z,2.57
2019-03-11T21:04:30.368Z,2.30
2019-03-11T21:09:28.310Z,2.30
2019-03-11T21:14:23.222Z,2.30
2019-03-11T21:19:18.291Z,2.20
2019-03-11T21:24:19.841Z,1.93
2019-03-11T21:29:14.790Z,2.20
2019-03-11T21:34:10.241Z,2.10
2019-03-11T21:39:06.312Z,2.00
2019-03-11T21:44:02.317Z,2.20
2019-03-11T21:48:57.236Z,2.40
2019-03-11T21:53:52.056Z,2.40
2019-03-11T21:58:47.044Z,2.30
2019-03-11T22:03:41.920Z,2.20
2019-03-11T22:08:37.447Z,2.40
2019-03-11T22:13:32.585Z,2.20
2019-03-11T22:18:27.753Z,2.40
2019-03-11T22:23:23.324Z,2.43
2019-03-11T22:28:20.183Z,2.20
2019-03-11T22:33:15.167Z,2.20
2019-03-11T22:38:10.047Z,2.10
2019-03-11T22:43:05.337Z,2.20
2019-03-11T22:48:01.241Z,2.10
2019-03-11T22:52:56.241Z,2.23
2019-03-11T22:57:56.983Z,2.30
2019-03-11T23:02:51.960Z,1.83
2019-03-11T23:07:47.236Z,2.10
2019-03-11T23:12:42.096Z,2.50
2019-03-11T23:17:37.145Z,2.70
2019-03-11T23:22:32.089Z,2.97
2019-03-11T23:27:27.079Z,3.17
2019-03-11T23:32:22.107Z,3.10
2019-03-11T23:37:17.063Z,2.50
2019-03-11T23:42:18.373Z,2.73
2019-03-11T23:47:13.336Z,2.13
2019-03-11T23:52:08.620Z,2.00
2019-03-11T23:57:03.465Z,2.23
